sensor_id;sensor_type;location;lat;lon;timestamp;P1;durP1;ratioP1;P2;durP2;ratioP2
70216;SDS011;65567;55.684;37.570;2023-06-14T00:00:54;14.18;;;5.13;;
70216;SDS011;65567;55.684;37.570;2023-06-14T00:03:22;16.98;;;4.60;;
70216;SDS011;65567;55.684;37.570;2023-06-14T00:05:49;12.02;;;5.20;;
70216;SDS011;65567;55.684;37.570;2023-06-14T00:08:15;15.93;;;4.20;;
70216;SDS011;65567;55.684;37.570;2023-06-14T00:10:41;14.02;;;4.43;;
70216;SDS011;65567;55.684;37.570;2023-06-14T00:13:07;13.55;;;4.40;;
70216;SDS011;65567;55.684;37.570;2023-06-14T00:15:34;13.70;;;5.50;;
70216;SDS011;65567;55.684;37.570;2023-06-14T00:18:00;11.68;;;4.45;;
70216;SDS011;65567;55.684;37.570;2023-06-14T00:20:27;8.52;;;3.92;;
70216;SDS011;65567;55.684;37.570;2023-06-14T00:22:53;13.45;;;4.72;;
70216;SDS011;65567;55.684;37.570;2023-06-14T00:25:22;14.95;;;5.00;;
70216;SDS011;65567;55.684;37.570;2023-06-14T00:27:52;14.43;;;4.90;;
70216;SDS011;65567;55.684;37.570;2023-06-14T00:30:22;14.00;;;4.60;;
70216;SDS011;65567;55.684;37.570;2023-06-14T00:32:48;13.73;;;5.00;;
70216;SDS011;65567;55.684;37.570;2023-06-14T00:35:14;20.60;;;5.45;;
70216;SDS011;65567;55.684;37.570;2023-06-14T00:37:40;13.43;;;4.80;;
70216;SDS011;65567;55.684;37.570;2023-06-14T00:40:06;20.90;;;5.28;;
70216;SDS011;65567;55.684;37.570;2023-06-14T00:42:32;17.00;;;4.55;;
70216;SDS011;65567;55.684;37.570;2023-06-14T00:44:59;14.73;;;4.70;;
70216;SDS011;65567;55.684;37.570;2023-06-14T00:47:25;18.35;;;4.80;;
70216;SDS011;65567;55.684;37.570;2023-06-14T00:49:52;13.98;;;4.30;;
70216;SDS011;65567;55.684;37.570;2023-06-14T00:52:19;11.30;;;4.88;;
70216;SDS011;65567;55.684;37.570;2023-06-14T00:54:45;16.73;;;4.80;;
70216;SDS011;65567;55.684;37.570;2023-06-14T00:57:11;17.70;;;5.07;;
70216;SDS011;65567;55.684;37.570;2023-06-14T00:59:42;18.33;;;6.07;;
70216;SDS011;65567;55.684;37.570;2023-06-14T01:02:09;18.02;;;5.70;;
70216;SDS011;65567;55.684;37.570;2023-06-14T01:04:36;23.92;;;6.32;;
70216;SDS011;65567;55.684;37.570;2023-06-14T01:07:14;22.95;;;6.05;;
70216;SDS011;65567;55.684;37.570;2023-06-14T01:12:34;18.50;;;5.57;;
70216;SDS011;65567;55.684;37.570;2023-06-14T01:15:04;18.77;;;5.93;;
70216;SDS011;65567;55.684;37.570;2023-06-14T01:17:31;20.27;;;5.78;;
70216;SDS011;65567;55.684;37.570;2023-06-14T01:19:59;20.63;;;5.97;;
70216;SDS011;65567;55.684;37.570;2023-06-14T01:22:28;20.05;;;5.43;;
70216;SDS011;65567;55.684;37.570;2023-06-14T01:24:54;16.80;;;5.05;;
70216;SDS011;65567;55.684;37.570;2023-06-14T01:27:23;10.73;;;4.63;;
70216;SDS011;65567;55.684;37.570;2023-06-14T01:29:53;15.95;;;4.93;;
70216;SDS011;65567;55.684;37.570;2023-06-14T01:32:25;18.13;;;5.93;;
70216;SDS011;65567;55.684;37.570;2023-06-14T01:34:52;20.50;;;5.90;;
70216;SDS011;65567;55.684;37.570;2023-06-14T01:37:18;13.27;;;5.10;;
70216;SDS011;65567;55.684;37.570;2023-06-14T01:39:47;18.70;;;5.55;;
70216;SDS011;65567;55.684;37.570;2023-06-14T01:42:14;16.02;;;5.45;;
70216;SDS011;65567;55.684;37.570;2023-06-14T01:44:41;13.88;;;5.97;;
70216;SDS011;65567;55.684;37.570;2023-06-14T01:47:09;13.50;;;4.50;;
70216;SDS011;65567;55.684;37.570;2023-06-14T01:49:36;15.23;;;4.95;;
70216;SDS011;65567;55.684;37.570;2023-06-14T01:52:01;14.98;;;5.45;;
70216;SDS011;65567;55.684;37.570;2023-06-14T01:54:27;11.18;;;4.90;;
70216;SDS011;65567;55.684;37.570;2023-06-14T01:56:54;13.88;;;4.85;;
70216;SDS011;65567;55.684;37.570;2023-06-14T01:59:20;9.05;;;4.72;;
70216;SDS011;65567;55.684;37.570;2023-06-14T02:01:45;11.18;;;4.78;;
70216;SDS011;65567;55.684;37.570;2023-06-14T02:04:11;17.55;;;5.32;;
70216;SDS011;65567;55.684;37.570;2023-06-14T02:06:37;13.35;;;4.93;;
70216;SDS011;65567;55.684;37.570;2023-06-14T02:09:03;14.85;;;6.07;;
70216;SDS011;65567;55.684;37.570;2023-06-14T02:11:29;11.43;;;5.30;;
70216;SDS011;65567;55.684;37.570;2023-06-14T02:13:55;11.57;;;4.90;;
70216;SDS011;65567;55.684;37.570;2023-06-14T02:16:21;11.15;;;5.75;;
70216;SDS011;65567;55.684;37.570;2023-06-14T02:18:47;11.32;;;5.75;;
70216;SDS011;65567;55.684;37.570;2023-06-14T02:21:13;9.73;;;4.63;;
70216;SDS011;65567;55.684;37.570;2023-06-14T02:23:40;14.02;;;5.60;;
70216;SDS011;65567;55.684;37.570;2023-06-14T02:26:06;12.85;;;5.85;;
70216;SDS011;65567;55.684;37.570;2023-06-14T02:28:32;11.57;;;5.03;;
70216;SDS011;65567;55.684;37.570;2023-06-14T02:30:57;11.18;;;5.28;;
70216;SDS011;65567;55.684;37.570;2023-06-14T02:33:23;16.42;;;5.78;;
70216;SDS011;65567;55.684;37.570;2023-06-14T02:35:50;9.00;;;4.97;;
70216;SDS011;65567;55.684;37.570;2023-06-14T02:38:17;11.30;;;5.90;;
70216;SDS011;65567;55.684;37.570;2023-06-14T02:40:43;28.55;;;6.57;;
70216;SDS011;65567;55.684;37.570;2023-06-14T02:43:08;12.00;;;6.00;;
70216;SDS011;65567;55.684;37.570;2023-06-14T02:45:34;11.48;;;5.57;;
70216;SDS011;65567;55.684;37.570;2023-06-14T02:48:00;12.43;;;5.57;;
70216;SDS011;65567;55.684;37.570;2023-06-14T02:50:25;11.60;;;6.47;;
70216;SDS011;65567;55.684;37.570;2023-06-14T02:52:53;10.55;;;6.20;;
70216;SDS011;65567;55.684;37.570;2023-06-14T02:55:21;11.38;;;5.78;;
70216;SDS011;65567;55.684;37.570;2023-06-14T02:57:46;16.40;;;6.22;;
70216;SDS011;65567;55.684;37.570;2023-06-14T03:00:13;13.10;;;6.00;;
70216;SDS011;65567;55.684;37.570;2023-06-14T03:02:39;10.98;;;5.63;;
70216;SDS011;65567;55.684;37.570;2023-06-14T03:05:05;13.85;;;6.18;;
70216;SDS011;65567;55.684;37.570;2023-06-14T03:07:32;9.85;;;6.15;;
70216;SDS011;65567;55.684;37.570;2023-06-14T03:09:57;13.00;;;5.95;;
70216;SDS011;65567;55.684;37.570;2023-06-14T03:12:23;12.65;;;6.18;;
70216;SDS011;65567;55.684;37.570;2023-06-14T03:14:50;14.05;;;6.60;;
70216;SDS011;65567;55.684;37.570;2023-06-14T03:17:16;11.27;;;5.80;;
70216;SDS011;65567;55.684;37.570;2023-06-14T03:19:42;13.45;;;6.30;;
70216;SDS011;65567;55.684;37.570;2023-06-14T03:22:08;11.05;;;6.35;;
70216;SDS011;65567;55.684;37.570;2023-06-14T03:24:36;15.98;;;6.88;;
70216;SDS011;65567;55.684;37.570;2023-06-14T03:27:02;13.63;;;6.93;;
70216;SDS011;65567;55.684;37.570;2023-06-14T03:29:28;14.95;;;6.70;;
70216;SDS011;65567;55.684;37.570;2023-06-14T03:34:23;13.10;;;6.43;;
70216;SDS011;65567;55.684;37.570;2023-06-14T03:36:49;12.30;;;6.20;;
70216;SDS011;65567;55.684;37.570;2023-06-14T03:39:14;16.92;;;8.27;;
70216;SDS011;65567;55.684;37.570;2023-06-14T03:41:40;14.45;;;6.47;;
70216;SDS011;65567;55.684;37.570;2023-06-14T03:44:06;12.77;;;6.00;;
70216;SDS011;65567;55.684;37.570;2023-06-14T03:46:31;15.65;;;6.60;;
70216;SDS011;65567;55.684;37.570;2023-06-14T03:48:57;12.45;;;6.13;;
70216;SDS011;65567;55.684;37.570;2023-06-14T03:51:23;14.57;;;5.63;;
70216;SDS011;65567;55.684;37.570;2023-06-14T03:53:50;8.63;;;5.35;;
70216;SDS011;65567;55.684;37.570;2023-06-14T03:56:16;10.40;;;4.97;;
70216;SDS011;65567;55.684;37.570;2023-06-14T03:58:41;10.68;;;5.55;;
70216;SDS011;65567;55.684;37.570;2023-06-14T04:01:07;12.65;;;5.20;;
70216;SDS011;65567;55.684;37.570;2023-06-14T04:03:33;13.27;;;5.78;;
70216;SDS011;65567;55.684;37.570;2023-06-14T04:05:59;13.10;;;5.95;;
70216;SDS011;65567;55.684;37.570;2023-06-14T04:08:25;11.30;;;5.25;;
70216;SDS011;65567;55.684;37.570;2023-06-14T04:10:51;11.55;;;5.70;;
70216;SDS011;65567;55.684;37.570;2023-06-14T04:13:17;10.98;;;5.88;;
70216;SDS011;65567;55.684;37.570;2023-06-14T04:15:42;8.50;;;5.25;;
70216;SDS011;65567;55.684;37.570;2023-06-14T04:18:11;10.38;;;5.13;;
70216;SDS011;65567;55.684;37.570;2023-06-14T04:20:37;11.93;;;5.57;;
70216;SDS011;65567;55.684;37.570;2023-06-14T04:23:12;10.05;;;4.88;;
70216;SDS011;65567;55.684;37.570;2023-06-14T04:25:39;9.98;;;5.22;;
70216;SDS011;65567;55.684;37.570;2023-06-14T04:28:05;11.65;;;5.72;;
70216;SDS011;65567;55.684;37.570;2023-06-14T04:30:34;10.93;;;5.25;;
70216;SDS011;65567;55.684;37.570;2023-06-14T04:33:00;13.05;;;5.68;;
70216;SDS011;65567;55.684;37.570;2023-06-14T04:35:26;10.05;;;5.55;;
70216;SDS011;65567;55.684;37.570;2023-06-14T04:37:54;12.30;;;6.20;;
70216;SDS011;65567;55.684;37.570;2023-06-14T04:40:20;12.23;;;6.55;;
70216;SDS011;65567;55.684;37.570;2023-06-14T04:42:46;13.70;;;7.38;;
70216;SDS011;65567;55.684;37.570;2023-06-14T04:45:12;14.38;;;8.43;;
70216;SDS011;65567;55.684;37.570;2023-06-14T04:47:38;12.30;;;7.25;;
70216;SDS011;65567;55.684;37.570;2023-06-14T04:50:04;15.10;;;7.15;;
70216;SDS011;65567;55.684;37.570;2023-06-14T04:52:30;15.15;;;6.88;;
70216;SDS011;65567;55.684;37.570;2023-06-14T04:54:56;10.20;;;6.90;;
70216;SDS011;65567;55.684;37.570;2023-06-14T04:57:23;12.95;;;7.10;;
70216;SDS011;65567;55.684;37.570;2023-06-14T04:59:50;14.77;;;8.40;;
70216;SDS011;65567;55.684;37.570;2023-06-14T05:02:20;14.55;;;7.47;;
70216;SDS011;65567;55.684;37.570;2023-06-14T05:04:49;11.07;;;6.60;;
70216;SDS011;65567;55.684;37.570;2023-06-14T05:07:15;13.40;;;6.25;;
70216;SDS011;65567;55.684;37.570;2023-06-14T05:09:41;13.05;;;6.78;;
70216;SDS011;65567;55.684;37.570;2023-06-14T05:12:07;10.23;;;5.97;;
70216;SDS011;65567;55.684;37.570;2023-06-14T05:14:35;12.48;;;5.95;;
70216;SDS011;65567;55.684;37.570;2023-06-14T05:17:01;14.18;;;5.60;;
70216;SDS011;65567;55.684;37.570;2023-06-14T05:19:27;12.27;;;5.03;;
70216;SDS011;65567;55.684;37.570;2023-06-14T05:21:53;9.48;;;5.53;;
70216;SDS011;65567;55.684;37.570;2023-06-14T05:24:19;8.65;;;5.07;;
70216;SDS011;65567;55.684;37.570;2023-06-14T05:26:46;9.25;;;4.47;;
70216;SDS011;65567;55.684;37.570;2023-06-14T05:29:12;10.60;;;4.85;;
70216;SDS011;65567;55.684;37.570;2023-06-14T05:31:37;11.43;;;4.45;;
70216;SDS011;65567;55.684;37.570;2023-06-14T05:34:03;7.47;;;3.80;;
70216;SDS011;65567;55.684;37.570;2023-06-14T05:36:29;9.63;;;4.30;;
70216;SDS011;65567;55.684;37.570;2023-06-14T05:38:55;11.05;;;4.75;;
70216;SDS011;65567;55.684;37.570;2023-06-14T05:41:26;12.25;;;4.28;;
70216;SDS011;65567;55.684;37.570;2023-06-14T05:43:53;9.50;;;4.35;;
70216;SDS011;65567;55.684;37.570;2023-06-14T05:46:20;16.88;;;4.97;;
70216;SDS011;65567;55.684;37.570;2023-06-14T05:48:49;7.53;;;3.90;;
70216;SDS011;65567;55.684;37.570;2023-06-14T05:51:15;8.75;;;4.40;;
70216;SDS011;65567;55.684;37.570;2023-06-14T05:53:44;9.13;;;4.00;;
70216;SDS011;65567;55.684;37.570;2023-06-14T05:56:13;15.38;;;4.07;;
70216;SDS011;65567;55.684;37.570;2023-06-14T05:58:39;6.13;;;3.80;;
70216;SDS011;65567;55.684;37.570;2023-06-14T06:01:06;11.48;;;3.40;;
70216;SDS011;65567;55.684;37.570;2023-06-14T06:03:31;7.85;;;3.20;;
70216;SDS011;65567;55.684;37.570;2023-06-14T06:05:58;9.70;;;3.67;;
70216;SDS011;65567;55.684;37.570;2023-06-14T06:08:24;5.75;;;3.13;;
70216;SDS011;65567;55.684;37.570;2023-06-14T06:10:51;8.18;;;2.78;;
70216;SDS011;65567;55.684;37.570;2023-06-14T06:13:17;6.00;;;2.63;;
70216;SDS011;65567;55.684;37.570;2023-06-14T06:15:42;6.25;;;3.50;;
70216;SDS011;65567;55.684;37.570;2023-06-14T06:18:08;8.65;;;3.10;;
70216;SDS011;65567;55.684;37.570;2023-06-14T06:20:34;7.75;;;3.00;;
70216;SDS011;65567;55.684;37.570;2023-06-14T06:23:01;12.05;;;2.65;;
70216;SDS011;65567;55.684;37.570;2023-06-14T06:25:27;4.82;;;2.40;;
70216;SDS011;65567;55.684;37.570;2023-06-14T06:27:53;6.32;;;2.17;;
70216;SDS011;65567;55.684;37.570;2023-06-14T06:30:21;4.13;;;2.20;;
70216;SDS011;65567;55.684;37.570;2023-06-14T06:32:47;9.57;;;2.58;;
70216;SDS011;65567;55.684;37.570;2023-06-14T06:35:12;5.45;;;2.05;;
70216;SDS011;65567;55.684;37.570;2023-06-14T06:37:39;7.82;;;2.17;;
70216;SDS011;65567;55.684;37.570;2023-06-14T06:40:05;5.63;;;2.17;;
70216;SDS011;65567;55.684;37.570;2023-06-14T06:42:32;6.55;;;1.90;;
70216;SDS011;65567;55.684;37.570;2023-06-14T06:44:58;5.50;;;1.98;;
70216;SDS011;65567;55.684;37.570;2023-06-14T06:47:23;3.00;;;2.00;;
70216;SDS011;65567;55.684;37.570;2023-06-14T06:49:50;4.03;;;2.20;;
70216;SDS011;65567;55.684;37.570;2023-06-14T06:52:16;3.85;;;2.00;;
70216;SDS011;65567;55.684;37.570;2023-06-14T06:54:42;6.47;;;2.10;;
70216;SDS011;65567;55.684;37.570;2023-06-14T06:57:07;10.77;;;2.20;;
70216;SDS011;65567;55.684;37.570;2023-06-14T06:59:34;6.63;;;2.15;;
70216;SDS011;65567;55.684;37.570;2023-06-14T07:02:00;11.60;;;2.83;;
70216;SDS011;65567;55.684;37.570;2023-06-14T07:04:25;8.63;;;2.42;;
70216;SDS011;65567;55.684;37.570;2023-06-14T07:06:51;7.22;;;2.10;;
70216;SDS011;65567;55.684;37.570;2023-06-14T07:09:17;4.60;;;1.65;;
70216;SDS011;65567;55.684;37.570;2023-06-14T07:11:45;5.57;;;2.17;;
70216;SDS011;65567;55.684;37.570;2023-06-14T07:14:12;6.53;;;2.00;;
70216;SDS011;65567;55.684;37.570;2023-06-14T07:16:38;6.88;;;2.30;;
70216;SDS011;65567;55.684;37.570;2023-06-14T07:19:04;6.13;;;2.15;;
70216;SDS011;65567;55.684;37.570;2023-06-14T07:21:29;6.68;;;2.58;;
70216;SDS011;65567;55.684;37.570;2023-06-14T07:23:55;7.25;;;2.20;;
70216;SDS011;65567;55.684;37.570;2023-06-14T07:26:22;9.32;;;2.42;;
70216;SDS011;65567;55.684;37.570;2023-06-14T07:28:48;3.88;;;2.22;;
70216;SDS011;65567;55.684;37.570;2023-06-14T07:31:14;5.82;;;2.47;;
70216;SDS011;65567;55.684;37.570;2023-06-14T07:33:41;3.97;;;2.25;;
70216;SDS011;65567;55.684;37.570;2023-06-14T07:36:07;5.30;;;2.13;;
70216;SDS011;65567;55.684;37.570;2023-06-14T07:38:33;6.55;;;1.63;;
70216;SDS011;65567;55.684;37.570;2023-06-14T07:40:59;5.50;;;2.67;;
70216;SDS011;65567;55.684;37.570;2023-06-14T07:43:25;6.70;;;2.38;;
70216;SDS011;65567;55.684;37.570;2023-06-14T07:45:51;9.35;;;2.50;;
70216;SDS011;65567;55.684;37.570;2023-06-14T07:48:18;8.60;;;2.20;;
70216;SDS011;65567;55.684;37.570;2023-06-14T07:50:44;6.13;;;2.25;;
70216;SDS011;65567;55.684;37.570;2023-06-14T07:53:10;4.80;;;2.45;;
70216;SDS011;65567;55.684;37.570;2023-06-14T07:55:36;6.13;;;2.33;;
70216;SDS011;65567;55.684;37.570;2023-06-14T07:58:05;3.75;;;2.30;;
70216;SDS011;65567;55.684;37.570;2023-06-14T08:00:31;4.70;;;2.45;;
70216;SDS011;65567;55.684;37.570;2023-06-14T08:02:57;6.40;;;2.45;;
70216;SDS011;65567;55.684;37.570;2023-06-14T08:05:27;7.85;;;2.30;;
70216;SDS011;65567;55.684;37.570;2023-06-14T08:07:54;5.53;;;2.10;;
70216;SDS011;65567;55.684;37.570;2023-06-14T08:10:20;6.10;;;2.63;;
70216;SDS011;65567;55.684;37.570;2023-06-14T08:12:46;8.93;;;2.60;;
70216;SDS011;65567;55.684;37.570;2023-06-14T08:15:13;5.95;;;2.40;;
70216;SDS011;65567;55.684;37.570;2023-06-14T08:17:39;6.50;;;2.88;;
70216;SDS011;65567;55.684;37.570;2023-06-14T08:20:07;11.27;;;2.45;;
70216;SDS011;65567;55.684;37.570;2023-06-14T08:22:33;5.85;;;2.20;;
70216;SDS011;65567;55.684;37.570;2023-06-14T08:24:59;7.40;;;2.60;;
70216;SDS011;65567;55.684;37.570;2023-06-14T08:27:26;7.95;;;2.80;;
70216;SDS011;65567;55.684;37.570;2023-06-14T08:29:52;7.72;;;2.40;;
70216;SDS011;65567;55.684;37.570;2023-06-14T08:32:18;5.93;;;2.28;;
70216;SDS011;65567;55.684;37.570;2023-06-14T08:34:44;6.13;;;3.03;;
70216;SDS011;65567;55.684;37.570;2023-06-14T08:37:10;6.82;;;2.60;;
70216;SDS011;65567;55.684;37.570;2023-06-14T08:39:35;7.47;;;2.35;;
70216;SDS011;65567;55.684;37.570;2023-06-14T08:42:02;6.93;;;2.45;;
70216;SDS011;65567;55.684;37.570;2023-06-14T08:44:28;5.78;;;2.63;;
70216;SDS011;65567;55.684;37.570;2023-06-14T08:46:59;8.90;;;2.30;;
70216;SDS011;65567;55.684;37.570;2023-06-14T08:49:25;9.88;;;3.40;;
70216;SDS011;65567;55.684;37.570;2023-06-14T08:51:58;5.60;;;2.28;;
70216;SDS011;65567;55.684;37.570;2023-06-14T08:54:29;3.10;;;2.20;;
70216;SDS011;65567;55.684;37.570;2023-06-14T08:57:00;7.60;;;2.50;;
70216;SDS011;65567;55.684;37.570;2023-06-14T08:59:26;8.80;;;2.40;;
70216;SDS011;65567;55.684;37.570;2023-06-14T09:01:53;7.18;;;2.40;;
70216;SDS011;65567;55.684;37.570;2023-06-14T09:04:22;5.55;;;2.25;;
70216;SDS011;65567;55.684;37.570;2023-06-14T09:06:50;5.53;;;2.55;;
70216;SDS011;65567;55.684;37.570;2023-06-14T09:09:19;7.50;;;2.55;;
70216;SDS011;65567;55.684;37.570;2023-06-14T09:11:52;6.13;;;2.80;;
70216;SDS011;65567;55.684;37.570;2023-06-14T09:14:18;8.23;;;2.53;;
70216;SDS011;65567;55.684;37.570;2023-06-14T09:16:44;6.75;;;2.70;;
70216;SDS011;65567;55.684;37.570;2023-06-14T09:19:25;5.68;;;2.53;;
70216;SDS011;65567;55.684;37.570;2023-06-14T09:21:52;6.97;;;3.00;;
70216;SDS011;65567;55.684;37.570;2023-06-14T09:24:18;6.18;;;3.25;;
70216;SDS011;65567;55.684;37.570;2023-06-14T09:26:47;9.07;;;3.15;;
70216;SDS011;65567;55.684;37.570;2023-06-14T09:29:16;8.10;;;3.20;;
70216;SDS011;65567;55.684;37.570;2023-06-14T09:31:42;4.32;;;2.67;;
70216;SDS011;65567;55.684;37.570;2023-06-14T09:34:08;6.05;;;3.17;;
70216;SDS011;65567;55.684;37.570;2023-06-14T09:36:34;9.52;;;3.10;;
70216;SDS011;65567;55.684;37.570;2023-06-14T09:39:02;10.68;;;3.15;;
70216;SDS011;65567;55.684;37.570;2023-06-14T09:41:41;7.13;;;2.63;;
70216;SDS011;65567;55.684;37.570;2023-06-14T09:44:09;7.05;;;3.03;;
70216;SDS011;65567;55.684;37.570;2023-06-14T09:46:36;3.38;;;2.67;;
70216;SDS011;65567;55.684;37.570;2023-06-14T09:49:02;5.55;;;2.78;;
70216;SDS011;65567;55.684;37.570;2023-06-14T09:51:29;10.40;;;2.90;;
70216;SDS011;65567;55.684;37.570;2023-06-14T09:53:59;7.05;;;2.47;;
70216;SDS011;65567;55.684;37.570;2023-06-14T09:56:30;4.13;;;2.33;;
70216;SDS011;65567;55.684;37.570;2023-06-14T09:58:58;6.07;;;2.95;;
70216;SDS011;65567;55.684;37.570;2023-06-14T10:01:25;5.07;;;2.53;;
70216;SDS011;65567;55.684;37.570;2023-06-14T10:04:04;5.07;;;2.30;;
70216;SDS011;65567;55.684;37.570;2023-06-14T10:06:32;4.00;;;2.50;;
70216;SDS011;65567;55.684;37.570;2023-06-14T10:09:01;4.90;;;2.30;;
70216;SDS011;65567;55.684;37.570;2023-06-14T10:11:30;3.80;;;2.30;;
70216;SDS011;65567;55.684;37.570;2023-06-14T10:13:57;8.18;;;2.38;;
70216;SDS011;65567;55.684;37.570;2023-06-14T10:16:31;4.55;;;2.92;;
70216;SDS011;65567;55.684;37.570;2023-06-14T10:19:04;5.53;;;2.80;;
70216;SDS011;65567;55.684;37.570;2023-06-14T10:21:43;3.50;;;2.45;;
70216;SDS011;65567;55.684;37.570;2023-06-14T10:24:23;6.13;;;2.28;;
70216;SDS011;65567;55.684;37.570;2023-06-14T10:27:17;4.20;;;2.40;;
70216;SDS011;65567;55.684;37.570;2023-06-14T10:32:21;9.45;;;2.58;;
70216;SDS011;65567;55.684;37.570;2023-06-14T10:34:57;8.43;;;2.70;;
70216;SDS011;65567;55.684;37.570;2023-06-14T10:37:24;8.60;;;2.97;;
70216;SDS011;65567;55.684;37.570;2023-06-14T10:39:51;5.05;;;2.70;;
70216;SDS011;65567;55.684;37.570;2023-06-14T10:42:18;7.05;;;2.63;;
70216;SDS011;65567;55.684;37.570;2023-06-14T10:44:51;4.63;;;3.00;;
70216;SDS011;65567;55.684;37.570;2023-06-14T10:47:32;5.22;;;3.15;;
70216;SDS011;65567;55.684;37.570;2023-06-14T10:52:32;4.50;;;2.53;;
70216;SDS011;65567;55.684;37.570;2023-06-14T10:55:12;4.07;;;2.60;;
70216;SDS011;65567;55.684;37.570;2023-06-14T11:00:23;3.70;;;2.70;;
70216;SDS011;65567;55.684;37.570;2023-06-14T11:06:21;6.65;;;2.63;;
70216;SDS011;65567;55.684;37.570;2023-06-14T11:09:02;4.97;;;2.85;;
70216;SDS011;65567;55.684;37.570;2023-06-14T11:11:37;5.23;;;2.90;;
70216;SDS011;65567;55.684;37.570;2023-06-14T11:14:07;9.15;;;3.00;;
70216;SDS011;65567;55.684;37.570;2023-06-14T11:16:32;5.40;;;2.88;;
70216;SDS011;65567;55.684;37.570;2023-06-14T11:19:00;4.95;;;3.15;;
70216;SDS011;65567;55.684;37.570;2023-06-14T11:21:28;3.88;;;2.30;;
70216;SDS011;65567;55.684;37.570;2023-06-14T11:23:56;3.97;;;2.80;;
70216;SDS011;65567;55.684;37.570;2023-06-14T11:26:29;4.03;;;2.58;;
70216;SDS011;65567;55.684;37.570;2023-06-14T11:28:56;8.75;;;2.70;;
70216;SDS011;65567;55.684;37.570;2023-06-14T11:31:26;4.07;;;2.72;;
70216;SDS011;65567;55.684;37.570;2023-06-14T11:33:53;9.48;;;2.92;;
70216;SDS011;65567;55.684;37.570;2023-06-14T11:36:23;7.80;;;2.80;;
70216;SDS011;65567;55.684;37.570;2023-06-14T11:39:01;3.60;;;2.42;;
70216;SDS011;65567;55.684;37.570;2023-06-14T11:41:44;5.05;;;2.95;;
70216;SDS011;65567;55.684;37.570;2023-06-14T11:44:10;6.03;;;2.60;;
70216;SDS011;65567;55.684;37.570;2023-06-14T11:46:37;4.57;;;2.50;;
70216;SDS011;65567;55.684;37.570;2023-06-14T11:49:03;6.93;;;2.90;;
70216;SDS011;65567;55.684;37.570;2023-06-14T11:51:30;6.43;;;2.72;;
70216;SDS011;65567;55.684;37.570;2023-06-14T11:53:58;5.97;;;2.60;;
70216;SDS011;65567;55.684;37.570;2023-06-14T11:56:24;3.70;;;2.42;;
70216;SDS011;65567;55.684;37.570;2023-06-14T11:58:52;5.55;;;2.65;;
70216;SDS011;65567;55.684;37.570;2023-06-14T12:01:21;14.20;;;2.70;;
70216;SDS011;65567;55.684;37.570;2023-06-14T12:03:48;7.93;;;2.83;;
70216;SDS011;65567;55.684;37.570;2023-06-14T12:06:25;7.15;;;2.90;;
70216;SDS011;65567;55.684;37.570;2023-06-14T12:08:57;4.03;;;2.80;;
70216;SDS011;65567;55.684;37.570;2023-06-14T12:11:23;4.05;;;2.40;;
70216;SDS011;65567;55.684;37.570;2023-06-14T12:13:53;6.72;;;2.92;;
70216;SDS011;65567;55.684;37.570;2023-06-14T12:16:19;7.25;;;2.63;;
70216;SDS011;65567;55.684;37.570;2023-06-14T12:18:46;6.00;;;2.85;;
70216;SDS011;65567;55.684;37.570;2023-06-14T12:21:12;5.60;;;2.40;;
70216;SDS011;65567;55.684;37.570;2023-06-14T12:23:39;5.63;;;2.50;;
70216;SDS011;65567;55.684;37.570;2023-06-14T12:26:07;5.38;;;2.20;;
70216;SDS011;65567;55.684;37.570;2023-06-14T12:28:33;10.13;;;3.47;;
70216;SDS011;65567;55.684;37.570;2023-06-14T12:30:58;6.65;;;2.22;;
70216;SDS011;65567;55.684;37.570;2023-06-14T12:33:24;7.25;;;2.45;;
70216;SDS011;65567;55.684;37.570;2023-06-14T12:35:50;4.32;;;2.67;;
70216;SDS011;65567;55.684;37.570;2023-06-14T12:40:46;4.20;;;2.70;;
70216;SDS011;65567;55.684;37.570;2023-06-14T12:43:12;6.85;;;2.58;;
70216;SDS011;65567;55.684;37.570;2023-06-14T12:45:37;7.35;;;3.55;;
70216;SDS011;65567;55.684;37.570;2023-06-14T12:48:03;6.63;;;2.50;;
70216;SDS011;65567;55.684;37.570;2023-06-14T12:50:29;5.10;;;2.63;;
70216;SDS011;65567;55.684;37.570;2023-06-14T12:52:55;5.93;;;2.30;;
70216;SDS011;65567;55.684;37.570;2023-06-14T12:55:21;5.15;;;2.88;;
70216;SDS011;65567;55.684;37.570;2023-06-14T12:57:47;5.22;;;2.58;;
70216;SDS011;65567;55.684;37.570;2023-06-14T13:00:15;4.05;;;2.40;;
70216;SDS011;65567;55.684;37.570;2023-06-14T13:02:42;4.90;;;2.20;;
70216;SDS011;65567;55.684;37.570;2023-06-14T13:05:09;5.47;;;2.60;;
70216;SDS011;65567;55.684;37.570;2023-06-14T13:07:34;4.43;;;2.50;;
70216;SDS011;65567;55.684;37.570;2023-06-14T13:10:00;4.70;;;2.20;;
70216;SDS011;65567;55.684;37.570;2023-06-14T13:12:26;5.10;;;1.95;;
70216;SDS011;65567;55.684;37.570;2023-06-14T13:14:52;4.95;;;2.17;;
70216;SDS011;65567;55.684;37.570;2023-06-14T13:17:17;6.38;;;2.47;;
70216;SDS011;65567;55.684;37.570;2023-06-14T13:19:43;3.10;;;2.10;;
70216;SDS011;65567;55.684;37.570;2023-06-14T13:22:09;4.07;;;2.40;;
70216;SDS011;65567;55.684;37.570;2023-06-14T13:24:35;7.45;;;2.50;;
70216;SDS011;65567;55.684;37.570;2023-06-14T13:27:00;4.25;;;2.40;;
70216;SDS011;65567;55.684;37.570;2023-06-14T13:29:26;6.13;;;2.53;;
70216;SDS011;65567;55.684;37.570;2023-06-14T13:31:53;4.15;;;2.50;;
70216;SDS011;65567;55.684;37.570;2023-06-14T13:34:19;6.38;;;2.58;;
70216;SDS011;65567;55.684;37.570;2023-06-14T13:36:45;8.65;;;2.60;;
70216;SDS011;65567;55.684;37.570;2023-06-14T13:39:11;5.68;;;2.33;;
70216;SDS011;65567;55.684;37.570;2023-06-14T13:41:37;6.07;;;2.42;;
70216;SDS011;65567;55.684;37.570;2023-06-14T13:44:02;6.25;;;2.45;;
70216;SDS011;65567;55.684;37.570;2023-06-14T13:46:31;4.68;;;2.38;;
70216;SDS011;65567;55.684;37.570;2023-06-14T13:48:57;5.82;;;2.42;;
70216;SDS011;65567;55.684;37.570;2023-06-14T13:51:27;5.68;;;2.35;;
70216;SDS011;65567;55.684;37.570;2023-06-14T13:53:52;4.68;;;2.83;;
70216;SDS011;65567;55.684;37.570;2023-06-14T13:56:20;6.00;;;2.65;;
70216;SDS011;65567;55.684;37.570;2023-06-14T13:58:47;7.35;;;2.70;;
70216;SDS011;65567;55.684;37.570;2023-06-14T14:01:13;5.07;;;2.65;;
70216;SDS011;65567;55.684;37.570;2023-06-14T14:03:39;6.60;;;2.58;;
70216;SDS011;65567;55.684;37.570;2023-06-14T14:06:05;5.47;;;2.85;;
70216;SDS011;65567;55.684;37.570;2023-06-14T14:08:32;6.28;;;3.03;;
70216;SDS011;65567;55.684;37.570;2023-06-14T14:10:58;5.60;;;2.70;;
70216;SDS011;65567;55.684;37.570;2023-06-14T14:13:24;6.32;;;2.83;;
70216;SDS011;65567;55.684;37.570;2023-06-14T14:15:53;3.42;;;2.17;;
70216;SDS011;65567;55.684;37.570;2023-06-14T14:18:19;6.35;;;2.55;;
70216;SDS011;65567;55.684;37.570;2023-06-14T14:20:46;5.97;;;3.20;;
70216;SDS011;65567;55.684;37.570;2023-06-14T14:23:12;6.75;;;2.22;;
70216;SDS011;65567;55.684;37.570;2023-06-14T14:25:38;2.78;;;2.08;;
70216;SDS011;65567;55.684;37.570;2023-06-14T14:28:03;4.68;;;2.85;;
70216;SDS011;65567;55.684;37.570;2023-06-14T14:30:29;6.30;;;2.50;;
70216;SDS011;65567;55.684;37.570;2023-06-14T14:32:55;9.35;;;2.47;;
70216;SDS011;65567;55.684;37.570;2023-06-14T14:35:21;7.97;;;2.40;;
70216;SDS011;65567;55.684;37.570;2023-06-14T14:37:48;5.20;;;2.40;;
70216;SDS011;65567;55.684;37.570;2023-06-14T14:40:14;5.82;;;2.70;;
70216;SDS011;65567;55.684;37.570;2023-06-14T14:42:40;4.22;;;2.33;;
70216;SDS011;65567;55.684;37.570;2023-06-14T14:45:06;5.28;;;2.67;;
70216;SDS011;65567;55.684;37.570;2023-06-14T14:47:32;7.22;;;2.63;;